Flugplatz Braunschweig Wolfsburg

Bericht für EDVE

vom 22.03. um 20:50 UTC

Wind 7 kt aus 160°

Sichtweite 10 km oder mehr

gute Sicht, keine Wolken < 5000 ft, keine CB, keine Wettererscheinungen (CAVOK)

Temperatur 13.0°C

Taupunkt 8.0°C

Luftfeuchtigkeit 72%

Luftdruck 1027 hPa

EDVE 222050Z 16007KT CAVOK 13/08 Q1027
Keine Prognose (TAF) verfügbar.
Impressum